createdAt,value
2022-09-12T00:02:09.156Z,13.838146033653846
2022-09-12T00:11:38.700Z,13.815018812709027
2022-09-12T00:18:08.972Z,13.760344377090298
2022-09-12T00:24:47.478Z,13.703572455058529
2022-09-12T00:31:16.167Z,13.662510451505014
2022-09-12T00:37:46.068Z,13.650045072115386
2022-09-12T00:54:54.035Z,13.559071906354514
2022-09-12T01:07:16.132Z,13.50124372909699
2022-09-12T01:13:44.886Z,13.49695403950669
2022-09-12T01:20:12.967Z,13.464676525919732
2022-09-12T01:26:50.646Z,13.396867161371238
2022-09-12T01:35:11.056Z,13.38019570443144
2022-09-12T01:41:38.727Z,13.32573552466555
2022-09-12T01:53:04.805Z,13.30281537416388
2022-09-12T02:04:45.813Z,13.206192516722409
2022-09-12T02:16:06.110Z,13.158742683946489
2022-09-12T02:22:34.679Z,13.120401337792643
2022-09-12T02:38:35.820Z,13.037554217182274
2022-09-12T02:45:03.983Z,13.040067804138795
2022-09-12T02:51:31.853Z,13.002984557901339
2022-09-12T02:58:00.596Z,12.97180641199833
2022-09-12T03:05:59.520Z,12.934460571697326
2022-09-12T03:12:27.027Z,12.879895223662205
2022-09-12T03:18:54.983Z,12.88018525292642
2022-09-12T03:25:23.354Z,12.860302571070232
2022-09-12T03:31:53.386Z,12.8446566680602
2022-09-12T03:38:23.098Z,12.877712818770902
2022-09-12T03:44:52.598Z,12.89523280727425
2022-09-12T03:51:23.838Z,12.869763142767557
2022-09-12T03:59:28.164Z,12.797163069607022
2022-09-12T04:05:58.105Z,12.759133308946488
2022-09-12T04:22:47.592Z,12.749895484949834
2022-09-12T04:30:28.936Z,12.686399325877927
2022-09-12T04:36:59.398Z,12.658123432274246
2022-09-12T04:43:28.673Z,12.694727868938127
2022-09-12T04:49:58.794Z,12.655041544732441
2022-09-12T04:56:25.794Z,12.655270171404682
2022-09-12T05:02:54.755Z,12.625037233486623
2022-09-12T05:09:24.134Z,12.6567105194398
2022-09-12T05:21:15.374Z,12.657949676003346
2022-09-12T05:30:51.004Z,12.546092443561873
2022-09-12T05:37:20.213Z,12.60649495714883
2022-09-12T05:48:20.385Z,12.651486073369567
2022-09-12T05:54:49.004Z,12.7186801055602
2022-09-12T06:01:16.778Z,12.71062983382107
2022-09-12T06:16:29.302Z,12.948421169523412
2022-09-12T06:31:07.414Z,13.00094847408027
2022-09-12T06:43:51.013Z,13.136092966137126
2022-09-12T06:50:18.254Z,13.297493598453176
2022-09-12T06:56:45.565Z,13.567480142140468
2022-09-12T07:03:13.087Z,13.818535744147157
2022-09-12T07:12:20.354Z,14.144799069816054
2022-09-12T07:24:51.998Z,14.60085898306856
2022-09-12T07:31:19.490Z,14.809980534071904
2022-09-12T07:37:46.483Z,15.115215431647155
2022-09-12T07:44:13.295Z,15.817919758570232
2022-09-12T07:50:44.952Z,16.42857441471572
2022-09-12T07:57:12.681Z,16.100581364966555
2022-09-12T08:03:39.489Z,16.241363137541803
2022-09-12T08:10:06.854Z,16.3850791701505
2022-09-12T08:16:33.706Z,16.349704744983274
2022-09-12T08:23:08.576Z,16.341099237040137
2022-09-12T08:35:17.078Z,16.574026050376254
2022-09-12T08:41:44.225Z,16.860226797658864
2022-09-12T08:50:10.806Z,16.96953908862876
2022-09-12T09:01:14.226Z,17.084589255852844
2022-09-12T09:07:44.280Z,17.192525867474917
2022-09-12T09:15:34.033Z,17.326977947324416
2022-09-12T09:24:16.481Z,17.532490463001672
2022-09-12T09:45:47.979Z,18.080920777591974
2022-09-12T09:52:15.713Z,18.127141905309365
2022-09-12T10:08:30.664Z,18.321505278010036
2022-09-12T10:14:57.459Z,18.389248667433108
2022-09-12T10:21:24.876Z,18.45453399352007
2022-09-12T10:28:01.248Z,18.563166936663883
2022-09-12T10:34:57.277Z,18.605495531981607
2022-09-12T10:42:11.510Z,18.811551525919732
2022-09-12T10:48:38.711Z,18.86335310409699
2022-09-12T10:55:06.423Z,18.93192804138796
2022-09-12T11:01:34.019Z,18.979573839882942
2022-09-12T11:08:01.577Z,19.167017009824416
2022-09-12T11:14:48.438Z,19.223495636496654
2022-09-12T11:21:16.644Z,19.400924304974918
2022-09-12T11:28:31.292Z,19.77469364025922
2022-09-12T11:41:14.601Z,20.287539846362876
2022-09-12T11:50:36.951Z,20.204952053720778
2022-09-12T11:58:05.250Z,20.23190256584449
2022-09-12T12:04:59.149Z,20.439061193561866
2022-09-12T12:11:22.387Z,20.785151024247483
2022-09-12T12:17:46.017Z,20.88106579222407
2022-09-12T12:24:13.295Z,20.848739287207355
2022-09-12T12:30:37.212Z,20.977081155936457
2022-09-12T12:52:14.622Z,21.400764919523425
2022-09-12T12:58:38.298Z,21.54436859845317
2022-09-12T13:05:01.368Z,21.618642218854497
2022-09-12T13:11:24.310Z,21.815389187918072
2022-09-12T13:17:53.252Z,21.60869630539295
2022-09-12T13:24:15.955Z,21.719966947115367
2022-09-12T13:36:00.736Z,21.414314642558512
2022-09-12T13:44:46.481Z,21.346337400710713
2022-09-12T13:51:10.137Z,21.476661789297687
2022-09-12T13:57:34.887Z,21.34891173704012
2022-09-12T14:04:03.431Z,21.430031093227417
2022-09-12T14:10:28.342Z,21.377209186872904
2022-09-12T14:18:12.653Z,21.156188597408043
2022-09-12T14:24:36.387Z,21.057545333403006
2022-09-12T14:33:32.245Z,21.20122021321067
2022-09-12T14:47:37.810Z,21.12592234531771
2022-09-12T14:54:00.890Z,21.053051186245852
2022-09-12T15:00:24.952Z,21.097908392558544
2022-09-12T15:08:15.417Z,21.088746341973252
2022-09-12T15:14:39.218Z,20.938416466346126
2022-09-12T15:21:03.133Z,20.898217365175576
2022-09-12T15:27:25.833Z,20.824772679765864
2022-09-12T15:33:49.177Z,20.747336825877955
2022-09-12T15:40:12.674Z,20.72589360367898
2022-09-12T15:46:37.336Z,20.702294105351196
2022-09-12T15:53:00.885Z,20.65328569188965
2022-09-12T15:59:23.866Z,20.56069188963212
2022-09-12T16:09:55.934Z,20.46575564381267
2022-09-12T16:16:18.647Z,20.451444920568534
2022-09-12T16:22:42.758Z,20.443810749372872
2022-09-12T16:29:06.286Z,20.41212374581936
2022-09-12T16:35:30.059Z,20.34782020798498
2022-09-12T16:41:54.037Z,20.375514736622037
2022-09-12T16:50:18.347Z,20.29853548285955
2022-09-12T16:56:42.442Z,20.22592234531771
2022-09-12T17:03:07.530Z,20.02109636287623
2022-09-12T17:09:32.189Z,19.91483917746656
2022-09-12T17:15:56.717Z,19.774869356187295
2022-09-12T17:26:24.396Z,19.60483512750834
2022-09-12T17:32:50.113Z,19.544821279264234
2022-09-12T17:39:14.290Z,19.314946305392965
2022-09-12T17:46:30.261Z,19.10298194502509
2022-09-12T17:52:58.798Z,18.97679177989131
2022-09-12T17:59:32.532Z,18.94108029368729
2022-09-12T18:12:16.348Z,18.800765572742474
2022-09-12T18:18:57.590Z,18.822555001045128
2022-09-12T18:25:29.131Z,18.709899534908025
2022-09-12T18:32:00.998Z,18.614310070025084
2022-09-12T18:42:42.247Z,18.47897091868729
2022-09-12T18:49:12.517Z,18.41364639945652
2022-09-12T18:55:57.562Z,18.33389945652174
2022-09-12T19:05:54.428Z,18.194435880016723
2022-09-12T19:12:26.685Z,18.248178825250836
2022-09-12T19:25:15.737Z,18.14555745714883
2022-09-12T19:31:48.434Z,18.10696527487458
2022-09-12T19:39:57.433Z,18.077733068561873
2022-09-12T19:46:39.711Z,18.018277722617057
2022-09-12T19:53:22.891Z,17.962380460911373
2022-09-12T20:05:00.432Z,17.878269361413043
2022-09-12T20:11:35.300Z,17.769398646530103
2022-09-12T20:18:08.695Z,17.7494428041388
2022-09-12T20:24:35.664Z,17.70234048390468
2022-09-12T20:31:04.482Z,17.677752665133777
2022-09-12T20:40:04.307Z,17.63096062395485
2022-09-12T20:46:34.480Z,17.62586290238295
2022-09-12T20:53:04.359Z,17.543807483277593
2022-09-12T20:59:33.343Z,17.4506969847408
2022-09-12T21:06:01.798Z,17.406720317725753
2022-09-12T21:12:29.982Z,17.36174291910535
2022-09-12T21:18:56.734Z,17.313791414088627
2022-09-12T21:25:24.072Z,17.24751123536789
2022-09-12T21:31:50.710Z,17.220742318143813
2022-09-12T21:38:17.307Z,17.21437931124582
2022-09-12T21:44:43.327Z,17.203043347617058
2022-09-12T21:51:10.613Z,17.17597852215719
2022-09-12T21:57:37.224Z,17.175816523829432
2022-09-12T22:08:53.543Z,17.12455581103679
2022-09-12T22:24:51.344Z,17.122106892767555
2022-09-12T22:31:19.716Z,17.11737432065217
2022-09-12T22:37:49.328Z,17.04182496341973
2022-09-12T22:44:16.678Z,17.060939459657188
2022-09-12T22:50:43.206Z,17.078073395693977
2022-09-12T23:01:22.952Z,17.08521373327759
2022-09-12T23:07:49.435Z,17.02979658758361
2022-09-12T23:14:16.517Z,17.021276651337793
2022-09-12T23:20:43.294Z,16.99475922345318
2022-09-12T23:27:14.912Z,17.011887280518398
2022-09-12T23:33:41.103Z,16.995663278637128
2022-09-12T23:40:08.319Z,17.050983094690636
2022-09-12T23:47:07.148Z,17.054984714673914
2022-09-12T23:53:34.753Z,17.080837818770902
